Time;durP1;ratioP1;P1;durP2;ratioP2;P2;SDS_P1;SDS_P2;PMS_P1;PMS_P2;Temp;Humidity;BMP_temperature;BMP_pressure;BME280_temperature;BME280_humidity;BME280_pressure;Samples;Min_cycle;Max_cycle;Signal;HPM_P1;HPM_P2
2023/03/21 00:00:55;;;;;;;5.50;4.63;;;8.10;99.90;;;;;;5094797;28;20239;-74
2023/03/21 00:03:21;;;;;;;7.77;4.67;;;8.00;99.90;;;;;;5094619;28;20319;-74
2023/03/21 00:05:52;;;;;;;9.23;4.93;;;8.00;99.90;;;;;;5094558;28;20207;-73
2023/03/21 00:08:19;;;;;;;5.63;4.43;;;8.10;99.90;;;;;;5094528;28;20559;-74
2023/03/21 00:10:47;;;;;;;7.67;4.70;;;8.00;99.90;;;;;;5094170;28;20231;-74
2023/03/21 00:13:15;;;;;;;8.53;4.47;;;8.10;99.90;;;;;;5094548;28;20207;-74
2023/03/21 00:15:49;;;;;;;6.30;4.60;;;8.00;99.90;;;;;;5094425;28;20256;-74
2023/03/21 00:18:16;;;;;;;9.83;5.43;;;8.00;99.90;;;;;;5094359;28;20201;-74
2023/03/21 00:20:46;;;;;;;7.53;5.23;;;8.00;99.90;;;;;;5094308;28;20232;-74
2023/03/21 00:23:12;;;;;;;7.20;5.33;;;8.00;99.90;;;;;;5093983;28;20216;-74
2023/03/21 00:25:39;;;;;;;6.17;4.70;;;7.90;99.90;;;;;;5094321;28;20227;-74
2023/03/21 00:28:07;;;;;;;6.67;5.20;;;7.90;99.90;;;;;;5094003;28;20551;-74
2023/03/21 00:30:34;;;;;;;6.70;5.03;;;7.90;99.90;;;;;;5094441;28;20235;-74
2023/03/21 00:33:00;;;;;;;6.00;4.50;;;7.80;99.90;;;;;;5093766;28;20718;-74
2023/03/21 00:35:27;;;;;;;7.23;5.00;;;7.90;99.90;;;;;;5094052;28;20232;-74
2023/03/21 00:37:53;;;;;;;5.27;4.77;;;7.90;99.90;;;;;;5093763;28;20254;-74
2023/03/21 00:40:20;;;;;;;6.37;4.83;;;7.80;99.90;;;;;;5094005;28;20254;-74
2023/03/21 00:42:47;;;;;;;6.07;4.90;;;7.80;99.90;;;;;;5094128;28;20266;-74
2023/03/21 00:45:15;;;;;;;6.80;5.10;;;7.80;99.90;;;;;;5093717;28;20672;-74
2023/03/21 00:47:41;;;;;;;12.03;5.40;;;7.80;99.90;;;;;;5093814;28;20196;-75
2023/03/21 00:50:10;;;;;;;9.03;5.50;;;7.80;99.90;;;;;;5093176;28;20231;-74
2023/03/21 00:52:37;;;;;;;7.60;5.23;;;7.80;99.90;;;;;;5093769;28;20567;-74
2023/03/21 00:55:04;;;;;;;7.10;5.73;;;7.70;99.90;;;;;;5093815;28;20254;-74
2023/03/21 00:57:31;;;;;;;6.47;5.47;;;7.80;99.90;;;;;;5093560;28;20676;-74
2023/03/21 00:59:58;;;;;;;9.47;5.63;;;7.80;99.90;;;;;;5093607;28;20227;-74
2023/03/21 01:02:26;;;;;;;9.03;5.37;;;7.80;99.90;;;;;;5093443;28;20200;-74
2023/03/21 01:04:53;;;;;;;5.83;5.20;;;7.80;99.90;;;;;;5093303;28;20243;-74
2023/03/21 01:07:20;;;;;;;6.33;5.00;;;7.80;99.90;;;;;;5093694;28;20203;-74
2023/03/21 01:09:47;;;;;;;6.83;5.10;;;7.70;99.90;;;;;;5093512;28;20254;-74
2023/03/21 01:12:14;;;;;;;7.60;5.20;;;7.70;99.90;;;;;;5093411;28;20204;-74
2023/03/21 01:14:40;;;;;;;7.50;5.60;;;7.70;99.90;;;;;;5093383;28;20222;-74
2023/03/21 01:17:08;;;;;;;6.90;4.73;;;7.70;99.90;;;;;;5093376;28;20235;-74
2023/03/21 01:19:36;;;;;;;6.33;4.63;;;7.80;99.90;;;;;;5093177;28;20242;-74
2023/03/21 01:22:03;;;;;;;6.07;5.03;;;7.80;99.90;;;;;;5093138;28;20694;-74
2023/03/21 01:24:29;;;;;;;6.60;4.67;;;7.80;99.90;;;;;;5093303;28;20675;-74
2023/03/21 01:26:56;;;;;;;7.03;4.50;;;7.80;99.90;;;;;;5093342;28;20192;-74
2023/03/21 01:29:23;;;;;;;5.40;4.50;;;7.80;99.90;;;;;;5093237;28;20242;-74
2023/03/21 01:31:49;;;;;;;5.83;4.43;;;7.70;99.90;;;;;;5093060;28;20239;-74
2023/03/21 01:34:16;;;;;;;7.73;5.70;;;7.70;99.90;;;;;;5092884;28;20631;-74
2023/03/21 01:36:44;;;;;;;6.57;4.67;;;7.70;99.90;;;;;;5093223;28;20245;-74
2023/03/21 01:39:10;;;;;;;7.80;4.93;;;7.60;99.90;;;;;;5092953;28;20698;-73
2023/03/21 01:41:39;;;;;;;7.83;4.90;;;7.60;99.90;;;;;;5093069;28;20231;-73
2023/03/21 01:44:07;;;;;;;7.20;5.10;;;7.50;99.90;;;;;;5092897;28;20268;-74
2023/03/21 01:46:39;;;;;;;7.93;5.43;;;7.50;99.90;;;;;;5092748;28;20270;-74
2023/03/21 01:49:12;;;;;;;7.07;5.27;;;7.50;99.90;;;;;;5093090;28;20200;-74
2023/03/21 01:51:42;;;;;;;6.33;4.70;;;7.50;99.90;;;;;;5093046;28;20200;-74
2023/03/21 01:54:15;;;;;;;8.17;5.20;;;7.50;99.90;;;;;;5093020;28;20269;-74
2023/03/21 01:56:47;;;;;;;6.87;5.10;;;7.50;99.90;;;;;;5092901;28;20253;-74
2023/03/21 01:59:20;;;;;;;7.27;4.73;;;7.50;99.90;;;;;;5092754;28;20205;-74
2023/03/21 02:01:48;;;;;;;6.40;4.80;;;7.50;99.90;;;;;;5093595;28;20674;-74
2023/03/21 02:04:20;;;;;;;6.67;5.00;;;7.40;99.90;;;;;;5096923;28;20262;-74
2023/03/21 02:06:52;;;;;;;6.47;5.10;;;7.40;99.90;;;;;;5096891;28;20207;-74
2023/03/21 02:09:24;;;;;;;6.07;5.10;;;7.50;99.90;;;;;;5096919;28;20192;-73
2023/03/21 02:11:54;;;;;;;7.77;5.17;;;7.40;99.90;;;;;;5097004;28;20239;-74
2023/03/21 02:14:20;;;;;;;6.63;5.40;;;7.40;99.90;;;;;;5096852;28;20200;-73
2023/03/21 02:16:52;;;;;;;8.47;5.37;;;7.40;99.90;;;;;;5096726;28;20242;-73
2023/03/21 02:19:43;;;;;;;7.30;4.97;;;7.40;99.90;;;;;;5096721;28;20232;-74
2023/03/21 02:22:28;;;;;;;7.17;5.43;;;7.40;99.90;;;;;;5096503;28;20234;-74
2023/03/21 02:25:16;;;;;;;8.20;5.20;;;7.30;99.90;;;;;;5078495;28;20303;-74
2023/03/21 02:27:47;;;;;;;9.20;4.90;;;7.30;99.90;;;;;;5096494;28;20200;-74
2023/03/21 02:30:41;;;;;;;8.53;5.13;;;7.30;99.90;;;;;;5096335;28;20204;-75
2023/03/21 02:33:46;;;;;;;8.03;5.10;;;7.30;99.90;;;;;;5065667;28;20286;-74
2023/03/21 02:36:27;;;;;;;7.37;4.60;;;7.40;99.90;;;;;;5072461;28;20196;-75
2023/03/21 02:39:06;;;;;;;6.17;4.83;;;7.40;99.90;;;;;;5096496;28;20235;-74
2023/03/21 02:41:42;;;;;;;8.60;5.03;;;7.40;99.90;;;;;;5096347;28;20564;-74
2023/03/21 02:44:16;;;;;;;6.60;5.37;;;7.30;99.90;;;;;;5096112;28;20760;-74
2023/03/21 02:46:48;;;;;;;7.17;5.80;;;7.40;99.90;;;;;;5096135;28;20224;-74
2023/03/21 02:49:19;;;;;;;6.90;5.07;;;7.40;99.90;;;;;;5095971;28;20257;-74
2023/03/21 02:51:48;;;;;;;8.30;5.47;;;7.40;99.90;;;;;;5095939;28;20628;-75
2023/03/21 02:54:18;;;;;;;5.77;5.17;;;7.40;99.90;;;;;;5095926;28;20654;-74
2023/03/21 02:56:47;;;;;;;9.33;5.20;;;7.40;99.90;;;;;;5096074;28;20228;-75
2023/03/21 02:59:16;;;;;;;9.17;4.83;;;7.40;99.90;;;;;;5095843;28;20196;-75
2023/03/21 03:01:43;;;;;;;6.53;5.27;;;7.40;99.90;;;;;;5095689;28;20224;-74
2023/03/21 03:04:20;;;;;;;6.03;5.30;;;7.50;99.90;;;;;;5095971;28;20228;-75
2023/03/21 03:07:03;;;;;;;10.80;6.07;;;7.50;99.90;;;;;;5095783;28;20231;-74
2023/03/21 03:09:47;;;;;;;8.73;5.27;;;7.40;99.90;;;;;;5095658;28;20200;-74
2023/03/21 03:12:23;;;;;;;6.27;5.27;;;7.50;99.90;;;;;;5096008;28;20196;-75
2023/03/21 03:14:57;;;;;;;10.43;5.80;;;7.40;99.90;;;;;;5095170;28;20239;-74
2023/03/21 03:17:37;;;;;;;7.97;5.60;;;7.40;99.90;;;;;;5095395;28;20206;-74
2023/03/21 03:20:17;;;;;;;6.40;5.00;;;7.40;99.90;;;;;;5095593;28;20231;-74
2023/03/21 03:22:52;;;;;;;8.20;5.27;;;7.40;99.90;;;;;;5095672;28;20200;-75
2023/03/21 03:25:26;;;;;;;10.23;5.80;;;7.30;99.90;;;;;;5095162;28;20625;-74
2023/03/21 03:27:55;;;;;;;7.87;5.47;;;7.30;99.90;;;;;;5095433;28;20286;-74
2023/03/21 03:30:25;;;;;;;9.60;5.33;;;7.30;99.90;;;;;;5095250;28;20243;-74
2023/03/21 03:32:56;;;;;;;9.30;5.60;;;7.20;99.90;;;;;;5095012;28;20264;-74
2023/03/21 03:35:24;;;;;;;7.83;6.13;;;7.20;99.90;;;;;;5095391;28;20200;-74
2023/03/21 03:37:56;;;;;;;6.40;5.40;;;7.20;99.90;;;;;;5095313;28;20243;-74
2023/03/21 03:40:28;;;;;;;8.20;5.87;;;7.20;99.90;;;;;;5095522;28;20192;-74
2023/03/21 03:42:58;;;;;;;7.73;6.10;;;7.20;99.90;;;;;;5095156;28;20231;-74
2023/03/21 03:45:29;;;;;;;6.97;5.87;;;7.10;99.90;;;;;;5094724;28;20723;-74
2023/03/21 03:48:04;;;;;;;7.70;5.37;;;7.10;99.90;;;;;;5095151;28;20200;-74
2023/03/21 03:50:35;;;;;;;9.03;6.13;;;7.10;99.90;;;;;;5094939;28;20210;-74
2023/03/21 03:53:06;;;;;;;9.53;6.43;;;7.10;99.90;;;;;;5094978;28;20228;-74
2023/03/21 03:55:35;;;;;;;8.03;5.50;;;7.00;99.90;;;;;;5094810;28;20721;-74
2023/03/21 03:58:02;;;;;;;6.47;5.80;;;6.90;99.90;;;;;;5094442;28;20579;-74
2023/03/21 04:00:32;;;;;;;7.90;6.07;;;6.90;99.90;;;;;;5094801;28;20199;-75
2023/03/21 04:02:59;;;;;;;7.83;5.87;;;6.80;99.90;;;;;;5094877;28;20234;-75
2023/03/21 04:05:26;;;;;;;9.17;6.70;;;6.80;99.90;;;;;;5094579;28;20259;-75
2023/03/21 04:07:53;;;;;;;6.97;5.97;;;6.80;99.90;;;;;;5094594;28;20234;-74
2023/03/21 04:10:21;;;;;;;8.10;6.17;;;6.80;99.90;;;;;;5094495;28;20265;-74
2023/03/21 04:12:49;;;;;;;9.47;6.30;;;6.90;99.90;;;;;;5094573;28;20242;-74
2023/03/21 04:15:16;;;;;;;8.77;6.20;;;6.90;99.90;;;;;;5094558;28;20246;-75
2023/03/21 04:17:44;;;;;;;7.87;5.83;;;6.90;99.90;;;;;;5094470;28;20200;-75
2023/03/21 04:20:11;;;;;;;9.07;5.93;;;6.90;99.90;;;;;;5094197;28;20648;-75
2023/03/21 04:22:38;;;;;;;8.40;6.60;;;7.00;99.90;;;;;;5094315;28;20247;-74
2023/03/21 04:25:06;;;;;;;7.53;6.10;;;7.00;99.90;;;;;;5093276;28;20263;-74
2023/03/21 04:27:32;;;;;;;7.50;6.17;;;7.00;99.90;;;;;;5094290;28;20239;-74
2023/03/21 04:30:00;;;;;;;11.27;5.93;;;7.10;99.90;;;;;;5094301;28;20289;-74
2023/03/21 04:32:27;;;;;;;8.70;6.10;;;7.10;99.90;;;;;;5094078;28;20232;-74
2023/03/21 04:34:54;;;;;;;8.80;6.00;;;7.10;99.90;;;;;;5093968;28;20265;-75
2023/03/21 04:37:22;;;;;;;7.83;5.70;;;7.10;99.90;;;;;;5093845;28;20299;-74
2023/03/21 04:39:49;;;;;;;10.93;6.73;;;7.00;99.90;;;;;;5094339;28;20204;-74
2023/03/21 04:42:17;;;;;;;10.60;5.70;;;7.00;99.90;;;;;;5093879;28;20743;-75
2023/03/21 04:44:44;;;;;;;11.90;6.70;;;7.10;99.90;;;;;;5093996;28;20224;-75
2023/03/21 04:47:14;;;;;;;9.53;6.10;;;7.00;99.90;;;;;;5093950;28;20239;-74
2023/03/21 04:49:41;;;;;;;12.40;5.90;;;7.10;99.90;;;;;;5093932;28;20631;-74
2023/03/21 04:52:07;;;;;;;6.70;5.93;;;7.00;99.90;;;;;;5093681;28;20257;-74
2023/03/21 04:54:34;;;;;;;8.73;6.27;;;7.00;99.90;;;;;;5094063;28;20239;-75
2023/03/21 04:57:01;;;;;;;7.57;5.63;;;7.00;99.90;;;;;;5093794;28;20682;-74
2023/03/21 04:59:28;;;;;;;9.33;5.97;;;7.00;99.90;;;;;;5093730;28;20250;-74
2023/03/21 05:01:55;;;;;;;8.57;5.70;;;7.00;99.90;;;;;;5093617;28;20927;-74
2023/03/21 05:04:23;;;;;;;7.50;5.57;;;7.00;99.90;;;;;;5093501;28;20224;-75
2023/03/21 05:06:50;;;;;;;6.43;5.43;;;7.00;99.90;;;;;;5093353;28;20227;-74
2023/03/21 05:09:17;;;;;;;7.03;5.07;;;7.00;99.90;;;;;;5093609;28;20242;-75
2023/03/21 05:11:44;;;;;;;7.47;5.70;;;7.00;99.90;;;;;;5093417;28;20223;-75
2023/03/21 05:14:14;;;;;;;9.30;5.80;;;7.00;99.90;;;;;;5093514;28;20196;-75
2023/03/21 05:16:47;;;;;;;9.00;5.53;;;7.00;99.90;;;;;;5093369;28;20694;-75
2023/03/21 05:19:14;;;;;;;11.50;5.97;;;7.00;99.90;;;;;;5093182;28;20628;-75
2023/03/21 05:21:42;;;;;;;8.70;6.40;;;6.90;99.90;;;;;;5093398;28;20239;-75
2023/03/21 05:24:11;;;;;;;10.17;5.47;;;6.90;99.90;;;;;;5093103;28;20687;-74
2023/03/21 05:26:38;;;;;;;9.70;5.90;;;7.00;99.90;;;;;;5093050;28;20854;-75
2023/03/21 05:29:04;;;;;;;7.77;6.20;;;6.90;99.90;;;;;;5092975;28;20600;-75
2023/03/21 05:31:31;;;;;;;11.40;6.50;;;6.90;99.90;;;;;;5092909;28;20204;-73
2023/03/21 05:33:58;;;;;;;8.50;5.97;;;7.00;99.90;;;;;;5092909;28;20287;-74
2023/03/21 05:36:25;;;;;;;9.67;6.30;;;7.00;99.90;;;;;;5092668;28;20235;-74
2023/03/21 05:38:52;;;;;;;9.20;5.90;;;7.00;99.90;;;;;;5093138;28;20228;-75
2023/03/21 05:41:20;;;;;;;10.87;6.20;;;7.00;99.90;;;;;;5092870;28;20228;-74
2023/03/21 05:43:47;;;;;;;8.73;6.60;;;7.10;99.90;;;;;;5092881;28;20677;-75
2023/03/21 05:46:13;;;;;;;8.27;5.90;;;7.20;99.90;;;;;;5092766;28;20228;-75
2023/03/21 05:48:40;;;;;;;10.07;6.17;;;7.20;99.90;;;;;;5093148;28;20227;-75
2023/03/21 05:51:06;;;;;;;8.80;6.33;;;7.20;99.90;;;;;;5093115;28;20239;-75
2023/03/21 05:53:33;;;;;;;10.17;6.37;;;7.30;99.90;;;;;;5093100;28;20257;-75
2023/03/21 05:56:01;;;;;;;10.33;6.93;;;7.30;99.90;;;;;;5093062;28;20328;-75
2023/03/21 05:58:28;;;;;;;10.07;6.70;;;7.30;99.90;;;;;;5092833;28;20240;-75
2023/03/21 06:00:55;;;;;;;8.27;7.00;;;7.40;99.90;;;;;;5092658;28;20224;-75
2023/03/21 06:03:21;;;;;;;9.27;7.20;;;7.40;99.90;;;;;;5092907;28;20238;-75
2023/03/21 06:05:48;;;;;;;9.33;6.83;;;7.40;99.90;;;;;;5092838;28;20228;-74
2023/03/21 06:08:14;;;;;;;9.27;7.33;;;7.40;99.90;;;;;;5092714;28;20228;-75
2023/03/21 06:10:41;;;;;;;10.27;7.70;;;7.40;99.90;;;;;;5092767;28;20227;-74
2023/03/21 06:13:09;;;;;;;13.03;7.40;;;7.50;99.90;;;;;;5092647;28;20257;-74
2023/03/21 06:15:35;;;;;;;9.60;7.47;;;7.50;99.90;;;;;;5092807;28;20560;-74
2023/03/21 06:18:02;;;;;;;10.13;7.47;;;7.50;99.90;;;;;;5092810;28;20232;-74
2023/03/21 06:20:29;;;;;;;10.17;7.43;;;7.50;99.90;;;;;;5092705;28;20228;-74
2023/03/21 06:22:55;;;;;;;9.67;7.40;;;7.60;99.90;;;;;;5092543;28;20192;-74
2023/03/21 06:25:22;;;;;;;8.03;7.23;;;7.60;99.90;;;;;;5092471;28;20267;-74
2023/03/21 06:27:48;;;;;;;12.37;8.57;;;7.60;99.90;;;;;;5092320;28;20251;-74
2023/03/21 06:30:17;;;;;;;10.83;7.87;;;7.60;99.90;;;;;;5092688;28;20235;-74
2023/03/21 06:32:44;;;;;;;9.43;8.23;;;7.70;99.90;;;;;;5092419;28;20197;-74
2023/03/21 06:35:10;;;;;;;11.97;8.47;;;7.80;99.90;;;;;;5092543;28;20203;-74
2023/03/21 06:37:37;;;;;;;9.30;7.23;;;8.00;99.90;;;;;;5092503;28;20243;-74
2023/03/21 06:40:08;;;;;;;8.23;7.00;;;8.10;99.90;;;;;;5092354;28;20193;-74
2023/03/21 06:42:35;;;;;;;11.93;7.97;;;8.30;99.90;;;;;;5092241;28;20719;-74
2023/03/21 06:45:02;;;;;;;10.40;7.20;;;8.40;99.90;;;;;;5092487;28;20224;-74
2023/03/21 06:47:30;;;;;;;10.30;7.40;;;8.40;99.90;;;;;;5091995;28;20650;-74
2023/03/21 06:49:56;;;;;;;9.40;7.33;;;8.40;99.90;;;;;;5094772;28;20192;-75
2023/03/21 06:52:23;;;;;;;10.30;8.13;;;8.40;99.90;;;;;;5095869;28;20651;-74
2023/03/21 06:54:50;;;;;;;11.63;7.70;;;8.40;99.90;;;;;;5095728;28;20219;-74
2023/03/21 06:57:19;;;;;;;12.20;8.33;;;8.40;99.90;;;;;;5095807;28;20200;-74
2023/03/21 06:59:46;;;;;;;10.70;7.60;;;8.50;99.90;;;;;;5095908;28;20634;-76
2023/03/21 07:02:13;;;;;;;10.63;8.23;;;8.50;99.90;;;;;;5095924;28;20201;-75
2023/03/21 07:04:40;;;;;;;11.37;7.60;;;8.50;99.90;;;;;;5095725;28;20258;-75
2023/03/21 07:07:07;;;;;;;10.27;7.57;;;8.60;99.90;;;;;;5095667;28;20200;-74
2023/03/21 07:09:34;;;;;;;10.90;7.80;;;8.70;99.90;;;;;;5095664;28;20593;-74
2023/03/21 07:12:00;;;;;;;8.80;7.53;;;8.90;99.90;;;;;;5095759;28;20226;-73
2023/03/21 07:14:27;;;;;;;10.37;7.70;;;9.00;99.90;;;;;;5095660;28;20283;-74
2023/03/21 07:16:53;;;;;;;9.23;7.40;;;9.10;99.90;;;;;;5095672;28;20239;-74
2023/03/21 07:19:20;;;;;;;9.73;7.63;;;9.10;99.90;;;;;;5095454;28;20250;-74
2023/03/21 07:21:48;;;;;;;9.50;6.87;;;9.20;99.90;;;;;;5095362;28;20192;-73
2023/03/21 07:24:14;;;;;;;8.77;7.03;;;9.40;99.90;;;;;;5095304;28;20234;-73
2023/03/21 07:26:41;;;;;;;10.73;7.17;;;9.40;99.90;;;;;;5095492;28;20204;-73
2023/03/21 07:29:08;;;;;;;10.33;7.13;;;9.50;99.90;;;;;;5095455;28;20568;-74
2023/03/21 07:31:35;;;;;;;8.77;6.50;;;9.70;99.90;;;;;;5095247;28;20227;-75
2023/03/21 07:34:02;;;;;;;8.67;6.70;;;9.80;99.90;;;;;;5094875;28;20228;-75
2023/03/21 07:36:28;;;;;;;9.40;7.03;;;9.90;99.90;;;;;;5094906;28;20265;-74
2023/03/21 07:38:56;;;;;;;14.87;7.73;;;10.00;99.90;;;;;;5095231;28;20227;-74
2023/03/21 07:41:23;;;;;;;10.63;7.30;;;10.30;99.90;;;;;;5095067;28;20224;-74
2023/03/21 07:43:49;;;;;;;10.23;7.17;;;10.30;99.90;;;;;;5095106;28;20246;-74
2023/03/21 07:46:16;;;;;;;9.43;6.90;;;10.20;99.90;;;;;;5094793;28;20263;-74
2023/03/21 07:48:42;;;;;;;10.33;7.43;;;10.20;99.90;;;;;;5094867;28;20651;-74
2023/03/21 07:51:09;;;;;;;11.63;7.30;;;10.20;99.90;;;;;;5094673;28;20254;-74
2023/03/21 07:53:35;;;;;;;8.30;7.23;;;10.10;99.90;;;;;;5094810;28;20205;-75
2023/03/21 07:56:04;;;;;;;9.80;6.97;;;10.10;99.90;;;;;;5094734;28;20594;-73
2023/03/21 07:58:33;;;;;;;8.97;6.43;;;10.10;99.90;;;;;;5094595;28;20269;-73
2023/03/21 08:01:00;;;;;;;10.10;6.77;;;10.10;99.90;;;;;;5094314;28;20203;-73
2023/03/21 08:03:28;;;;;;;9.50;6.70;;;10.10;99.90;;;;;;5094422;28;20215;-73
2023/03/21 08:05:55;;;;;;;13.23;7.50;;;10.10;99.90;;;;;;5094359;28;20266;-74
2023/03/21 08:08:21;;;;;;;9.80;7.33;;;10.00;99.90;;;;;;5094276;28;20192;-74
2023/03/21 08:10:48;;;;;;;8.50;7.03;;;9.80;99.90;;;;;;5094411;28;20238;-74
2023/03/21 08:13:16;;;;;;;10.00;6.93;;;9.90;99.90;;;;;;5094326;28;20196;-74
2023/03/21 08:15:43;;;;;;;9.57;6.90;;;10.20;99.90;;;;;;5094087;28;20247;-74
2023/03/21 08:18:10;;;;;;;11.67;6.70;;;10.20;99.90;;;;;;5093945;28;20192;-74
2023/03/21 08:20:37;;;;;;;9.17;7.37;;;10.40;99.90;;;;;;5094365;28;20220;-74
2023/03/21 08:23:04;;;;;;;8.33;6.73;;;10.70;99.90;;;;;;5094375;28;20197;-74
2023/03/21 08:25:32;;;;;;;10.00;6.87;;;10.80;99.90;;;;;;5094136;28;20252;-74
2023/03/21 08:27:59;;;;;;;10.07;6.10;;;10.90;99.90;;;;;;5094151;28;20204;-74
2023/03/21 08:30:28;;;;;;;9.50;6.87;;;11.00;99.90;;;;;;5094051;28;20709;-74
2023/03/21 08:32:57;;;;;;;9.50;7.20;;;11.30;99.90;;;;;;5093801;28;20228;-74
2023/03/21 08:35:24;;;;;;;8.03;6.93;;;11.50;99.90;;;;;;5094253;28;20200;-74
2023/03/21 08:37:51;;;;;;;11.30;8.03;;;11.50;99.90;;;;;;5093923;28;20279;-73
2023/03/21 08:40:19;;;;;;;11.03;7.57;;;11.30;99.90;;;;;;5094031;28;20222;-73
2023/03/21 08:42:46;;;;;;;8.47;6.90;;;11.60;99.90;;;;;;5093870;28;20200;-74
2023/03/21 08:45:14;;;;;;;9.27;6.80;;;11.70;99.90;;;;;;5093436;28;20224;-74
2023/03/21 08:47:42;;;;;;;9.60;7.20;;;12.20;99.90;;;;;;5093939;28;20197;-74
2023/03/21 08:50:12;;;;;;;9.87;7.40;;;12.00;99.90;;;;;;5093825;28;20533;-73
2023/03/21 08:52:38;;;;;;;10.57;7.03;;;12.00;99.90;;;;;;5093791;28;20235;-73
2023/03/21 08:55:06;;;;;;;7.73;5.97;;;12.20;99.90;;;;;;5093674;28;20231;-73
2023/03/21 08:57:33;;;;;;;8.17;6.10;;;12.40;99.90;;;;;;5093585;28;20200;-74
2023/03/21 08:59:59;;;;;;;9.03;6.37;;;13.00;99.90;;;;;;5093399;28;20196;-74
2023/03/21 09:02:26;;;;;;;9.90;6.57;;;13.50;99.90;;;;;;5093612;28;20228;-74
2023/03/21 09:04:57;;;;;;;8.43;6.30;;;13.20;99.90;;;;;;5093543;28;20231;-74
2023/03/21 09:07:25;;;;;;;8.60;6.40;;;13.30;99.90;;;;;;5093479;28;20281;-74
2023/03/21 09:09:52;;;;;;;10.03;6.90;;;13.30;99.90;;;;;;5093292;28;20602;-74
2023/03/21 09:12:19;;;;;;;8.27;6.37;;;13.20;99.90;;;;;;5092573;28;20210;-74
2023/03/21 09:14:45;;;;;;;10.27;6.30;;;13.20;99.90;;;;;;5093163;28;20222;-74
2023/03/21 09:17:12;;;;;;;8.30;5.10;;;13.40;99.90;;;;;;5093305;28;20251;-74
2023/03/21 09:19:39;;;;;;;8.83;5.67;;;13.60;99.90;;;;;;5093146;28;20204;-74
2023/03/21 09:22:09;;;;;;;9.77;5.83;;;12.80;99.90;;;;;;5093131;28;20196;-74
2023/03/21 09:24:36;;;;;;;6.20;5.53;;;12.50;99.90;;;;;;5093054;28;20196;-74
2023/03/21 09:27:03;;;;;;;7.43;5.80;;;12.90;99.90;;;;;;5092685;28;20684;-74
2023/03/21 09:29:31;;;;;;;7.67;6.27;;;12.90;99.90;;;;;;5092949;28;20197;-74
2023/03/21 09:31:58;;;;;;;7.23;6.40;;;12.70;99.90;;;;;;5093024;28;20192;-74
2023/03/21 09:34:25;;;;;;;6.53;5.90;;;12.70;99.90;;;;;;5092865;28;20228;-75
2023/03/21 09:36:53;;;;;;;9.87;6.13;;;13.10;99.90;;;;;;5092825;28;20219;-74
2023/03/21 09:39:21;;;;;;;10.00;6.40;;;13.20;99.90;;;;;;5092639;28;20196;-76
2023/03/21 09:42:04;;;;;;;6.20;5.57;;;13.60;99.90;;;;;;5092906;28;20193;-76
2023/03/21 09:44:40;;;;;;;9.88;6.15;;;13.60;99.90;;;;;;5092784;28;20203;-74
2023/03/21 09:47:19;;;;;;;6.15;5.55;;;13.90;99.90;;;;;;5092665;28;20224;-73
2023/03/21 09:49:50;;;;;;;9.38;5.97;;;14.40;99.90;;;;;;5092564;28;20200;-74
2023/03/21 09:52:21;;;;;;;7.18;6.25;;;14.40;99.90;;;;;;5092905;28;20584;-74
2023/03/21 09:54:49;;;;;;;6.85;6.03;;;14.50;99.90;;;;;;5092691;28;20218;-74
2023/03/21 09:57:26;;;;;;;6.25;5.65;;;15.10;99.90;;;;;;5092586;28;20204;-74
2023/03/21 09:59:54;;;;;;;5.95;5.35;;;15.00;99.90;;;;;;5092561;28;20282;-74
2023/03/21 10:02:38;;;;;;;6.03;5.20;;;14.50;99.90;;;;;;5092386;28;20238;-74
2023/03/21 10:05:16;;;;;;;6.32;5.72;;;14.50;99.90;;;;;;5092575;28;20196;-74
2023/03/21 10:07:47;;;;;;;7.32;5.30;;;13.70;99.90;;;;;;5092357;28;20670;-74
2023/03/21 10:10:19;;;;;;;4.90;4.40;;;14.20;99.90;;;;;;5092503;28;20207;-74
2023/03/21 10:12:48;;;;;;;5.95;5.35;;;14.80;99.90;;;;;;5092199;28;20291;-73
2023/03/21 10:15:18;;;;;;;5.40;4.88;;;15.30;99.90;;;;;;5092638;28;20228;-74
2023/03/21 10:17:50;;;;;;;5.93;4.85;;;15.70;99.90;;;;;;5092435;28;20269;-74
2023/03/21 10:20:20;;;;;;;7.75;4.63;;;16.50;99.90;;;;;;5092330;28;20901;-74
2023/03/21 10:22:48;;;;;;;4.82;4.32;;;16.10;99.90;;;;;;5092397;28;20228;-74
2023/03/21 10:25:19;;;;;;;4.65;3.70;;;15.50;99.90;;;;;;5095325;28;20247;-74
2023/03/21 10:27:47;;;;;;;4.20;3.80;;;16.40;99.90;;;;;;5096252;28;20615;-74
2023/03/21 10:30:24;;;;;;;4.38;3.38;;;15.60;99.90;;;;;;5096210;28;20667;-74
2023/03/21 10:32:51;;;;;;;5.50;3.35;;;15.30;99.90;;;;;;5096030;28;20595;-74
2023/03/21 10:35:19;;;;;;;4.55;3.47;;;15.10;99.90;;;;;;5096068;28;20242;-74
2023/03/21 10:37:46;;;;;;;3.60;3.30;;;16.10;99.90;;;;;;5095936;28;20200;-74
2023/03/21 10:40:17;;;;;;;4.43;3.75;;;16.70;99.90;;;;;;5096332;28;20228;-74
2023/03/21 10:42:44;;;;;;;4.53;4.10;;;16.40;99.90;;;;;;5096220;28;20228;-74
2023/03/21 10:45:16;;;;;;;4.10;3.70;;;16.60;99.90;;;;;;5095891;28;20663;-74
2023/03/21 10:47:44;;;;;;;4.75;4.30;;;16.00;99.90;;;;;;5096028;28;20196;-74
2023/03/21 10:50:14;;;;;;;4.15;3.75;;;16.20;99.90;;;;;;5095799;28;20564;-74
2023/03/21 10:52:46;;;;;;;4.63;3.40;;;17.10;99.90;;;;;;5095874;28;20291;-74
2023/03/21 10:55:23;;;;;;;3.90;3.08;;;17.80;99.90;;;;;;5096034;28;20220;-74
2023/03/21 10:57:56;;;;;;;4.05;3.03;;;18.80;98.80;;;;;;5095820;28;20238;-74
2023/03/21 11:00:27;;;;;;;3.53;3.00;;;18.50;96.90;;;;;;5095755;28;20652;-74
2023/03/21 11:02:55;;;;;;;4.07;3.00;;;18.30;96.50;;;;;;5095696;28;20196;-73
2023/03/21 11:05:25;;;;;;;3.40;3.10;;;17.50;96.90;;;;;;5095800;28;20228;-74
2023/03/21 11:08:05;;;;;;;3.00;2.70;;;18.00;96.50;;;;;;5095613;28;20239;-75
2023/03/21 11:10:35;;;;;;;3.00;2.80;;;18.70;96.10;;;;;;5095328;28;20597;-74
2023/03/21 11:13:06;;;;;;;5.88;3.40;;;17.90;95.30;;;;;;5095305;28;20659;-74
2023/03/21 11:15:41;;;;;;;4.13;3.08;;;17.90;96.10;;;;;;5095604;28;20231;-73
2023/03/21 11:18:17;;;;;;;4.32;3.00;;;17.90;95.50;;;;;;5095555;28;20231;-74
2023/03/21 11:20:49;;;;;;;5.50;3.15;;;18.80;95.40;;;;;;5095305;28;20234;-73
2023/03/21 11:23:16;;;;;;;5.03;2.97;;;18.80;94.10;;;;;;5095265;28;20250;-74
2023/03/21 11:25:47;;;;;;;3.80;3.33;;;19.00;94.50;;;;;;5094912;28;20612;-74
2023/03/21 11:28:17;;;;;;;3.55;3.25;;;18.60;93.70;;;;;;5095393;28;20588;-74
2023/03/21 11:30:52;;;;;;;3.40;3.10;;;19.20;93.40;;;;;;5095184;28;20693;-74
2023/03/21 11:33:21;;;;;;;3.13;2.83;;;20.50;92.60;;;;;;5095014;28;20231;-74
2023/03/21 11:35:59;;;;;;;2.70;2.35;;;21.90;90.40;;;;;;5094362;28;20224;-73
2023/03/21 11:38:28;;;;;;;3.17;2.88;;;22.40;85.20;;;;;;5095034;28;20664;-74
2023/03/21 11:40:59;;;;;;;3.70;2.85;;;22.10;84.30;;;;;;5095029;28;20227;-73
2023/03/21 11:43:29;;;;;;;3.58;3.10;;;22.00;81.90;;;;;;5094889;28;20644;-73
2023/03/21 11:45:57;;;;;;;3.75;3.00;;;21.00;83.10;;;;;;5094584;28;20235;-73
2023/03/21 11:48:24;;;;;;;3.63;3.25;;;22.10;80.50;;;;;;5094792;28;20291;-73
2023/03/21 11:50:56;;;;;;;3.83;3.05;;;20.20;80.20;;;;;;5094526;28;20200;-73
2023/03/21 11:53:34;;;;;;;3.20;2.90;;;20.30;80.60;;;;;;5094731;28;20197;-73
2023/03/21 11:56:15;;;;;;;3.90;3.03;;;20.50;78.40;;;;;;5094671;28;20226;-73
2023/03/21 11:58:55;;;;;;;4.05;2.92;;;20.00;78.90;;;;;;5094372;28;20199;-73
2023/03/21 12:01:27;;;;;;;5.45;3.10;;;19.70;80.80;;;;;;5094637;28;20212;-73
2023/03/21 12:04:06;;;;;;;4.60;3.67;;;20.20;79.20;;;;;;5094257;28;20540;-74
2023/03/21 12:06:36;;;;;;;5.72;3.00;;;20.90;80.00;;;;;;5094426;28;20273;-74
2023/03/21 12:09:21;;;;;;;3.28;2.97;;;21.80;76.50;;;;;;5094297;28;20192;-74
2023/03/21 12:12:02;;;;;;;4.45;2.78;;;21.90;74.00;;;;;;5094025;28;20792;-74
2023/03/21 12:14:40;;;;;;;3.03;2.72;;;21.40;73.00;;;;;;5094393;28;20287;-74
2023/03/21 12:17:17;;;;;;;2.97;2.65;;;21.50;74.10;;;;;;5094192;28;20303;-74
2023/03/21 12:20:06;;;;;;;2.53;2.30;;;20.90;72.00;;;;;;5094013;28;20232;-74
2023/03/21 12:22:40;;;;;;;3.08;2.72;;;19.00;74.50;;;;;;5094257;28;20284;-73
2023/03/21 12:25:15;;;;;;;3.03;2.45;;;18.90;77.90;;;;;;5094106;28;20620;-73
2023/03/21 12:27:50;;;;;;;2.53;2.20;;;19.70;74.60;;;;;;5093927;28;20224;-74
2023/03/21 12:30:32;;;;;;;2.80;2.30;;;20.30;74.10;;;;;;5093878;28;20604;-74
2023/03/21 12:33:14;;;;;;;3.33;2.58;;;20.30;73.30;;;;;;5094010;28;20335;-74
2023/03/21 12:35:52;;;;;;;3.03;2.72;;;20.10;74.40;;;;;;5093835;28;20200;-73
2023/03/21 12:38:24;;;;;;;3.90;2.65;;;20.10;73.50;;;;;;5093853;28;20228;-72
2023/03/21 12:41:08;;;;;;;4.30;2.78;;;19.90;74.60;;;;;;5093593;28;20200;-72
2023/03/21 12:43:44;;;;;;;3.30;2.85;;;19.50;74.50;;;;;;5093837;28;20200;-72
2023/03/21 12:46:16;;;;;;;2.97;2.78;;;20.60;76.00;;;;;;5092943;28;20241;-72
2023/03/21 12:48:48;;;;;;;3.80;2.60;;;20.70;72.60;;;;;;5093662;28;20200;-73
2023/03/21 12:51:17;;;;;;;3.30;2.90;;;20.20;72.90;;;;;;5093379;28;20255;-72
2023/03/21 12:53:51;;;;;;;2.75;2.55;;;19.70;73.90;;;;;;5093613;28;20228;-73
2023/03/21 12:56:22;;;;;;;2.67;2.47;;;20.00;73.80;;;;;;5093615;28;20224;-73
2023/03/21 12:58:56;;;;;;;2.35;2.15;;;21.90;72.60;;;;;;5093102;28;20242;-73
2023/03/21 13:01:24;;;;;;;3.55;2.50;;;23.00;71.00;;;;;;5093304;28;20231;-73
2023/03/21 13:04:05;;;;;;;3.03;2.53;;;22.90;68.60;;;;;;5093522;28;20200;-73